Time;durP1;ratioP1;P1;durP2;ratioP2;P2;SDS_P1;SDS_P2;PMS_P1;PMS_P2;Temp;Humidity;BMP_temperature;BMP_pressure;BME280_temperature;BME280_humidity;BME280_pressure;Samples;Min_cycle;Max_cycle;Signal;HPM_P1;HPM_P2
2024/01/20 00:00:41;;;;;;;9.52;2.42;;;1.40;99.90;;;;;;6248361;23;20031;-42
2024/01/20 00:03:06;;;;;;;10.50;2.95;;;1.40;99.90;;;;;;6248467;22;20443;-41
2024/01/20 00:05:32;;;;;;;13.13;3.67;;;1.40;99.90;;;;;;6247284;23;20131;-41
2024/01/20 00:07:58;;;;;;;11.43;2.75;;;1.30;99.90;;;;;;6249067;23;20495;-41
2024/01/20 00:10:23;;;;;;;15.38;2.75;;;1.30;99.90;;;;;;6249377;23;20039;-40
2024/01/20 00:12:49;;;;;;;9.43;2.63;;;1.30;99.90;;;;;;6248669;23;20016;-41
2024/01/20 00:15:15;;;;;;;13.02;3.30;;;1.20;99.90;;;;;;6249013;22;20024;-41
2024/01/20 00:17:40;;;;;;;14.45;3.17;;;1.20;99.90;;;;;;6248233;22;20367;-41
2024/01/20 00:20:07;;;;;;;15.60;3.25;;;1.10;99.90;;;;;;6246798;23;20016;-41
2024/01/20 00:22:33;;;;;;;14.75;2.72;;;1.00;99.90;;;;;;6248906;23;20020;-42
2024/01/20 00:25:00;;;;;;;11.45;2.50;;;1.00;99.90;;;;;;6248198;23;20059;-41
2024/01/20 00:27:26;;;;;;;13.37;2.70;;;1.00;99.90;;;;;;6247773;22;20016;-41
2024/01/20 00:29:52;;;;;;;16.60;3.37;;;0.90;99.90;;;;;;6248172;23;20020;-42
2024/01/20 00:32:18;;;;;;;7.85;2.90;;;0.70;99.90;;;;;;6248490;23;20027;-42
2024/01/20 00:34:44;;;;;;;7.97;4.35;;;0.60;99.90;;;;;;6248048;23;20020;-42
2024/01/20 00:37:09;;;;;;;10.97;3.97;;;0.60;99.90;;;;;;6222312;23;20023;-43
2024/01/20 00:39:36;;;;;;;14.63;3.97;;;0.40;99.90;;;;;;6248749;22;20020;-41
2024/01/20 00:42:02;;;;;;;8.43;3.92;;;0.40;99.90;;;;;;6246867;23;20024;-42
2024/01/20 00:44:28;;;;;;;10.13;3.53;;;0.40;99.90;;;;;;6248016;23;20078;-42
2024/01/20 00:46:53;;;;;;;6.70;3.07;;;0.40;99.90;;;;;;6247941;23;20012;-42
2024/01/20 00:49:19;;;;;;;7.13;3.63;;;0.40;99.90;;;;;;6247806;22;20508;-39
2024/01/20 00:51:45;;;;;;;10.35;4.13;;;0.30;99.90;;;;;;6265807;22;20139;-42
2024/01/20 00:54:10;;;;;;;8.13;4.13;;;0.40;99.90;;;;;;6256601;22;20092;-42
2024/01/20 00:56:36;;;;;;;7.87;4.23;;;0.50;99.90;;;;;;6309360;22;20090;-43
2024/01/20 00:59:02;;;;;;;12.80;4.27;;;0.50;99.90;;;;;;6256961;22;20072;-42
2024/01/20 01:01:27;;;;;;;14.68;4.63;;;0.50;99.90;;;;;;6309801;22;20438;-41
2024/01/20 01:03:53;;;;;;;15.27;4.50;;;0.40;99.90;;;;;;6309482;22;20439;-42
2024/01/20 01:06:19;;;;;;;9.40;3.73;;;0.50;99.90;;;;;;6309326;22;20196;-43
2024/01/20 01:08:44;;;;;;;10.80;3.95;;;0.70;99.90;;;;;;6281708;22;20019;-42
2024/01/20 01:11:10;;;;;;;11.37;3.63;;;0.70;99.90;;;;;;6282504;22;20094;-42
2024/01/20 01:13:37;;;;;;;11.23;4.30;;;0.70;99.90;;;;;;6282113;22;20076;-42
2024/01/20 01:16:06;;;;;;;13.95;5.65;;;0.80;99.90;;;;;;6309887;22;20065;-42
2024/01/20 01:18:33;;;;;;;13.25;5.10;;;0.70;99.90;;;;;;6309293;22;20021;-42
2024/01/20 01:20:58;;;;;;;7.57;4.03;;;0.70;99.90;;;;;;6309207;22;20080;-42
2024/01/20 01:23:24;;;;;;;13.60;4.70;;;0.70;99.90;;;;;;6310611;22;20015;-42
2024/01/20 01:25:50;;;;;;;15.63;4.05;;;0.70;99.90;;;;;;6309152;22;20443;-42
2024/01/20 01:28:15;;;;;;;9.32;5.03;;;0.80;99.90;;;;;;6309128;22;20033;-42
2024/01/20 01:30:41;;;;;;;9.00;4.28;;;0.90;99.90;;;;;;6281898;22;20022;-43
2024/01/20 01:33:07;;;;;;;15.65;5.10;;;1.00;99.90;;;;;;6256420;22;20058;-40
2024/01/20 01:35:32;;;;;;;13.50;4.78;;;0.90;99.90;;;;;;6282240;22;20349;-42
2024/01/20 01:37:58;;;;;;;11.07;4.53;;;1.00;99.90;;;;;;6309705;22;20034;-42
2024/01/20 01:40:25;;;;;;;11.00;4.88;;;1.20;99.90;;;;;;6309386;22;20018;-42
2024/01/20 01:42:56;;;;;;;13.32;4.82;;;0.90;99.90;;;;;;6281741;22;20111;-42
2024/01/20 01:45:23;;;;;;;11.88;3.95;;;1.00;99.90;;;;;;6282601;22;20145;-42
2024/01/20 01:47:50;;;;;;;7.55;3.95;;;0.90;99.90;;;;;;6282465;22;20011;-42
2024/01/20 01:50:16;;;;;;;10.73;3.65;;;1.00;99.90;;;;;;6308452;22;20469;-41
2024/01/20 01:52:42;;;;;;;11.52;3.90;;;1.00;99.90;;;;;;6255738;22;20019;-41
2024/01/20 01:55:08;;;;;;;8.30;4.05;;;1.10;99.90;;;;;;6281594;22;20033;-42
2024/01/20 01:57:35;;;;;;;10.93;4.43;;;1.00;99.90;;;;;;6281718;22;20098;-42
2024/01/20 02:00:03;;;;;;;15.67;5.10;;;1.00;99.90;;;;;;6309249;22;20043;-41
2024/01/20 02:02:28;;;;;;;15.38;5.05;;;1.10;99.90;;;;;;6308830;22;20015;-42
2024/01/20 02:04:54;;;;;;;7.07;3.80;;;1.20;99.90;;;;;;6308855;22;20026;-42
2024/01/20 02:07:20;;;;;;;8.98;4.85;;;1.10;99.90;;;;;;6309485;22;20354;-42
2024/01/20 02:09:46;;;;;;;10.33;3.27;;;1.20;99.90;;;;;;6309806;22;20094;-40
2024/01/20 02:12:14;;;;;;;15.67;4.03;;;1.10;99.90;;;;;;6281850;22;20016;-42
2024/01/20 02:14:44;;;;;;;8.67;3.13;;;1.20;99.90;;;;;;6308799;22;20023;-42
2024/01/20 02:17:10;;;;;;;9.35;3.75;;;1.20;99.90;;;;;;6308660;22;20390;-42
2024/01/20 02:19:39;;;;;;;9.55;2.72;;;1.50;99.90;;;;;;6308678;22;20023;-42
2024/01/20 02:22:12;;;;;;;9.40;3.23;;;1.40;99.90;;;;;;6281329;22;20026;-42
2024/01/20 02:24:39;;;;;;;9.63;4.07;;;1.40;99.90;;;;;;6255753;22;20012;-42
2024/01/20 02:27:05;;;;;;;9.75;3.85;;;1.40;99.90;;;;;;6281419;22;20016;-42
2024/01/20 02:29:31;;;;;;;11.80;4.32;;;1.20;99.90;;;;;;6309557;22;20015;-42
2024/01/20 02:31:57;;;;;;;10.83;4.10;;;1.00;99.90;;;;;;6281204;22;20472;-41
2024/01/20 02:34:23;;;;;;;13.80;4.43;;;0.90;99.90;;;;;;6281414;22;20095;-41
2024/01/20 02:36:48;;;;;;;13.67;5.80;;;0.80;99.90;;;;;;6309449;22;20072;-42
2024/01/20 02:39:14;;;;;;;10.73;4.40;;;0.70;99.90;;;;;;6308530;22;20479;-42
2024/01/20 02:41:40;;;;;;;13.10;5.47;;;0.70;99.90;;;;;;6308432;22;20021;-43
2024/01/20 02:44:09;;;;;;;12.18;4.93;;;0.60;99.90;;;;;;6308449;22;20381;-42
2024/01/20 02:46:35;;;;;;;11.13;5.67;;;0.60;99.90;;;;;;6281861;22;20086;-42
2024/01/20 02:49:00;;;;;;;17.50;5.93;;;0.50;99.90;;;;;;6281109;22;20057;-42
2024/01/20 02:51:26;;;;;;;15.80;5.93;;;0.50;99.90;;;;;;6307996;22;20050;-42
2024/01/20 02:53:52;;;;;;;13.73;5.87;;;0.50;99.90;;;;;;6281355;22;20023;-41
2024/01/20 02:56:17;;;;;;;17.87;6.60;;;0.60;99.90;;;;;;6307914;22;20059;-42
2024/01/20 02:58:43;;;;;;;9.80;5.13;;;0.60;99.90;;;;;;6308300;22;20019;-41
2024/01/20 03:01:09;;;;;;;15.83;6.73;;;0.60;99.90;;;;;;6281300;22;20023;-42
2024/01/20 03:03:34;;;;;;;18.10;7.53;;;0.70;99.90;;;;;;6281934;22;20054;-42
2024/01/20 03:06:00;;;;;;;15.47;6.40;;;0.60;99.90;;;;;;6308895;22;20021;-40
2024/01/20 03:08:26;;;;;;;16.10;6.90;;;0.60;99.90;;;;;;6308936;22;20051;-42
2024/01/20 03:10:51;;;;;;;14.27;5.60;;;0.60;99.90;;;;;;6280158;22;20028;-41
2024/01/20 03:13:17;;;;;;;15.13;6.63;;;0.60;99.90;;;;;;6308152;22;20054;-42
2024/01/20 03:15:43;;;;;;;17.47;6.73;;;0.50;99.90;;;;;;6308845;22;20026;-42
2024/01/20 03:18:10;;;;;;;15.83;7.40;;;0.30;99.90;;;;;;6280801;22;20443;-42
2024/01/20 03:20:36;;;;;;;17.47;8.73;;;0.10;99.90;;;;;;6280899;22;20022;-42
2024/01/20 03:23:02;;;;;;;19.00;8.73;;;0.00;99.90;;;;;;6308143;22;20454;-42
2024/01/20 03:25:28;;;;;;;13.87;9.80;;;-0.20;99.90;;;;;;6281889;22;20047;-42
2024/01/20 03:27:53;;;;;;;17.33;10.43;;;-0.10;99.90;;;;;;6281902;22;20430;-42
2024/01/20 03:30:20;;;;;;;20.27;11.20;;;-0.30;99.90;;;;;;6308086;22;20015;-43
2024/01/20 03:32:46;;;;;;;19.87;11.37;;;-0.40;99.90;;;;;;6281806;22;20026;-42
2024/01/20 03:35:12;;;;;;;20.17;13.33;;;-0.50;99.90;;;;;;6308098;22;20019;-42
2024/01/20 03:37:38;;;;;;;23.40;12.40;;;-0.50;99.90;;;;;;6308038;22;20011;-43
2024/01/20 03:40:04;;;;;;;26.87;13.17;;;-0.50;99.90;;;;;;6281823;22;20326;-42
2024/01/20 03:42:30;;;;;;;19.03;12.37;;;-0.50;99.90;;;;;;6280435;22;20072;-42
2024/01/20 03:44:55;;;;;;;24.13;14.47;;;-0.50;99.90;;;;;;6308008;22;20019;-43
2024/01/20 03:47:21;;;;;;;20.17;13.13;;;-0.50;99.90;;;;;;6308020;22;20015;-42
2024/01/20 03:49:47;;;;;;;22.77;14.90;;;-0.30;99.90;;;;;;6255644;22;20409;-42
2024/01/20 03:52:12;;;;;;;26.00;13.90;;;-0.40;99.90;;;;;;6308470;22;20019;-42
2024/01/20 03:54:39;;;;;;;23.07;14.30;;;-0.50;99.90;;;;;;6256244;22;20047;-42
2024/01/20 03:57:05;;;;;;;23.23;14.40;;;-0.50;99.90;;;;;;6255552;22;20018;-42
2024/01/20 03:59:31;;;;;;;36.67;16.63;;;-0.50;99.90;;;;;;6307913;22;20015;-42
2024/01/20 04:01:56;;;;;;;17.73;10.70;;;-0.50;99.90;;;;;;6307910;22;20020;-43
2024/01/20 04:04:22;;;;;;;34.20;15.73;;;-0.50;99.90;;;;;;6308040;22;20078;-42
2024/01/20 04:06:48;;;;;;;29.10;17.33;;;-0.50;99.90;;;;;;6307862;22;20011;-42
2024/01/20 04:09:13;;;;;;;34.50;18.97;;;-0.50;99.90;;;;;;6280578;22;20019;-42
2024/01/20 04:11:39;;;;;;;30.30;17.77;;;-0.50;99.90;;;;;;6307815;22;20121;-42
2024/01/20 04:14:05;;;;;;;30.47;18.30;;;-0.50;99.90;;;;;;6280742;22;20023;-42
2024/01/20 04:16:31;;;;;;;20.63;12.53;;;-0.60;99.90;;;;;;6254797;22;20090;-42
2024/01/20 04:18:56;;;;;;;26.17;16.77;;;-0.60;99.90;;;;;;6308589;22;20361;-42
2024/01/20 04:21:22;;;;;;;28.33;17.33;;;-0.60;99.90;;;;;;6308537;22;20022;-42
2024/01/20 04:23:49;;;;;;;33.73;18.87;;;-0.50;99.90;;;;;;6256499;22;20015;-43
2024/01/20 04:26:16;;;;;;;30.63;17.87;;;-0.50;99.90;;;;;;6309758;22;20015;-42
2024/01/20 04:28:42;;;;;;;33.23;19.83;;;-0.60;99.90;;;;;;6282395;22;20086;-43
2024/01/20 04:31:08;;;;;;;33.53;18.63;;;-0.60;99.90;;;;;;6283171;22;20050;-42
2024/01/20 04:33:34;;;;;;;32.67;17.40;;;-0.60;99.90;;;;;;6309715;22;20479;-42
2024/01/20 04:36:01;;;;;;;26.63;17.10;;;-0.60;99.90;;;;;;6282835;22;20047;-43
2024/01/20 04:38:27;;;;;;;31.93;19.97;;;-0.50;99.90;;;;;;6309107;22;20343;-42
2024/01/20 04:40:53;;;;;;;20.77;13.40;;;-0.20;99.90;;;;;;6309582;22;20015;-42
2024/01/20 04:43:19;;;;;;;32.50;18.17;;;-0.50;99.90;;;;;;6310240;22;20019;-42
2024/01/20 04:45:45;;;;;;;25.93;15.77;;;-0.50;99.90;;;;;;6309567;22;20021;-43
2024/01/20 04:48:10;;;;;;;25.93;16.87;;;-0.50;99.90;;;;;;6310278;22;20043;-43
2024/01/20 04:50:36;;;;;;;31.37;18.50;;;-0.60;99.90;;;;;;6309430;22;20442;-42
2024/01/20 04:53:02;;;;;;;38.67;19.67;;;-0.60;99.90;;;;;;6256466;22;20009;-42
2024/01/20 04:55:28;;;;;;;28.97;17.20;;;-0.70;99.90;;;;;;6309428;22;20115;-42
2024/01/20 04:57:54;;;;;;;32.73;19.27;;;-0.60;99.90;;;;;;6310354;22;20015;-42
2024/01/20 05:00:19;;;;;;;33.80;18.23;;;-0.60;99.90;;;;;;6282169;22;20478;-43
2024/01/20 05:02:45;;;;;;;33.33;17.73;;;-0.60;99.90;;;;;;6309429;22;20019;-43
2024/01/20 05:05:11;;;;;;;29.80;17.00;;;-0.70;99.90;;;;;;6283065;22;20019;-43
2024/01/20 05:07:36;;;;;;;32.27;18.10;;;-0.70;99.90;;;;;;6309286;22;20447;-43
2024/01/20 05:10:02;;;;;;;30.37;17.77;;;-0.70;99.90;;;;;;6309732;22;20068;-43
2024/01/20 05:12:28;;;;;;;32.77;20.33;;;-0.70;99.90;;;;;;6309359;22;20022;-42
2024/01/20 05:14:55;;;;;;;30.03;18.40;;;-0.70;99.90;;;;;;6282095;22;20026;-43
2024/01/20 05:17:21;;;;;;;36.57;19.80;;;-0.80;99.90;;;;;;6310591;22;20038;-43
2024/01/20 05:19:46;;;;;;;34.57;21.13;;;-0.80;99.90;;;;;;6309295;22;20020;-43
2024/01/20 05:22:12;;;;;;;35.63;19.53;;;-0.80;99.90;;;;;;6309198;22;20011;-42
2024/01/20 05:24:38;;;;;;;30.73;19.87;;;-0.80;99.90;;;;;;6309205;22;20090;-43
2024/01/20 05:27:04;;;;;;;39.73;21.37;;;-0.80;99.90;;;;;;6282142;22;20011;-41
2024/01/20 05:29:29;;;;;;;31.77;19.20;;;-0.80;99.90;;;;;;6309165;22;20019;-42
2024/01/20 05:31:55;;;;;;;30.27;19.60;;;-0.80;99.90;;;;;;6232085;22;20025;-41
2024/01/20 05:34:21;;;;;;;28.10;16.97;;;-0.80;99.90;;;;;;6308926;22;20086;-43
2024/01/20 05:36:47;;;;;;;35.57;20.33;;;-0.40;99.90;;;;;;6281342;22;20015;-42
2024/01/20 05:39:12;;;;;;;38.87;23.13;;;-0.60;99.90;;;;;;6281798;22;20054;-43
2024/01/20 05:41:38;;;;;;;37.03;20.67;;;-0.60;99.90;;;;;;6309141;22;20078;-43
2024/01/20 05:44:04;;;;;;;31.83;19.03;;;-0.70;99.90;;;;;;6281478;22;20512;-43
2024/01/20 05:46:30;;;;;;;33.47;19.47;;;-0.70;99.90;;;;;;6309657;22;20086;-42
2024/01/20 05:48:55;;;;;;;38.00;22.53;;;-0.40;99.90;;;;;;6281698;22;20023;-42
2024/01/20 05:51:21;;;;;;;32.23;20.57;;;-0.50;99.90;;;;;;6255991;22;20106;-42
2024/01/20 05:53:47;;;;;;;41.70;18.67;;;-0.70;99.90;;;;;;6231044;22;20019;-43
2024/01/20 05:56:12;;;;;;;33.10;18.83;;;-0.70;99.90;;;;;;6308765;22;20323;-43
2024/01/20 05:58:38;;;;;;;30.13;17.90;;;-0.70;99.90;;;;;;6308900;22;20026;-43
2024/01/20 06:01:04;;;;;;;36.90;19.17;;;-0.70;99.90;;;;;;6281956;22;20565;-43
2024/01/20 06:03:30;;;;;;;37.37;18.73;;;-0.50;99.90;;;;;;6308448;22;20019;-42
2024/01/20 06:05:56;;;;;;;30.00;18.97;;;-0.70;99.90;;;;;;6309459;22;20022;-43
2024/01/20 06:08:22;;;;;;;26.27;16.07;;;-0.60;99.90;;;;;;6308787;22;20015;-43
2024/01/20 06:10:48;;;;;;;31.60;17.63;;;-0.60;99.90;;;;;;6308761;22;20011;-42
2024/01/20 06:13:13;;;;;;;37.27;18.70;;;-0.30;99.90;;;;;;6309494;22;20057;-42
2024/01/20 06:15:39;;;;;;;36.07;19.30;;;-0.60;99.90;;;;;;6255964;22;20410;-42
2024/01/20 06:18:05;;;;;;;31.63;18.93;;;-0.60;99.90;;;;;;6309217;22;20015;-43
2024/01/20 06:20:30;;;;;;;32.07;17.93;;;-0.60;99.90;;;;;;6309666;22;20015;-42
2024/01/20 06:22:56;;;;;;;38.07;20.23;;;-0.60;99.90;;;;;;6308995;22;20015;-43
2024/01/20 06:25:22;;;;;;;36.90;21.93;;;-0.50;99.90;;;;;;6308662;22;20011;-43
2024/01/20 06:27:47;;;;;;;35.77;18.03;;;-0.60;99.90;;;;;;6308577;22;20023;-43
2024/01/20 06:30:13;;;;;;;31.57;18.27;;;-0.60;99.90;;;;;;6308526;22;20395;-43
2024/01/20 06:32:39;;;;;;;36.50;19.10;;;-0.50;99.90;;;;;;6308520;22;20056;-43
2024/01/20 06:35:06;;;;;;;29.67;17.40;;;-0.30;99.90;;;;;;6255448;22;20011;-43
2024/01/20 06:37:32;;;;;;;36.30;18.80;;;-0.50;99.90;;;;;;6309047;22;20016;-44
2024/01/20 06:39:58;;;;;;;38.70;18.00;;;-0.50;99.90;;;;;;6308797;22;20022;-42
2024/01/20 06:42:23;;;;;;;36.90;19.37;;;-0.60;99.90;;;;;;6281461;22;20015;-43
2024/01/20 06:44:49;;;;;;;34.57;18.83;;;-0.70;99.90;;;;;;6281238;22;20015;-43
2024/01/20 06:47:15;;;;;;;39.33;19.70;;;-0.70;99.90;;;;;;6281257;22;20068;-42
2024/01/20 06:49:41;;;;;;;35.40;16.73;;;-0.70;99.90;;;;;;6281076;22;20060;-43
2024/01/20 06:52:06;;;;;;;35.33;17.67;;;-0.80;99.90;;;;;;6308460;22;20026;-43
2024/01/20 06:54:32;;;;;;;38.10;18.70;;;-0.80;99.90;;;;;;6281034;22;20102;-42
2024/01/20 06:56:58;;;;;;;31.10;15.93;;;-0.80;99.90;;;;;;6308937;22;20018;-43
2024/01/20 06:59:24;;;;;;;28.57;14.43;;;-0.80;99.90;;;;;;6308368;22;20023;-42
2024/01/20 07:01:49;;;;;;;32.33;16.37;;;-0.80;99.90;;;;;;6308290;22;20011;-43
2024/01/20 07:04:15;;;;;;;35.40;17.17;;;-0.80;99.90;;;;;;6280520;22;20061;-42
2024/01/20 07:06:41;;;;;;;39.67;19.53;;;-0.80;99.90;;;;;;6308323;22;20021;-42
2024/01/20 07:09:07;;;;;;;35.10;18.00;;;-0.90;99.90;;;;;;6280835;22;20012;-43
2024/01/20 07:11:33;;;;;;;36.03;19.07;;;-0.90;99.90;;;;;;6308580;22;20384;-44
2024/01/20 07:13:58;;;;;;;41.33;18.47;;;-0.80;99.90;;;;;;6281143;22;20025;-42
2024/01/20 07:16:24;;;;;;;38.50;20.07;;;-0.90;99.90;;;;;;6308367;22;20335;-42
2024/01/20 07:18:50;;;;;;;36.63;19.73;;;-0.80;99.90;;;;;;6255451;22;20019;-43
2024/01/20 07:21:15;;;;;;;34.60;17.40;;;-0.80;99.90;;;;;;6308157;22;20026;-43
2024/01/20 07:23:41;;;;;;;33.33;16.87;;;-0.80;99.90;;;;;;6308126;22;20016;-42
2024/01/20 07:26:07;;;;;;;38.73;19.63;;;-0.70;99.90;;;;;;6281284;22;20019;-42
2024/01/20 07:28:33;;;;;;;40.70;19.60;;;-0.70;99.90;;;;;;6308078;22;20023;-42
2024/01/20 07:30:58;;;;;;;34.77;16.80;;;-0.70;99.90;;;;;;6307765;22;20046;-41
2024/01/20 07:33:24;;;;;;;36.97;17.73;;;-0.70;99.90;;;;;;6308460;22;20019;-43
2024/01/20 07:35:50;;;;;;;37.23;18.27;;;-0.70;99.90;;;;;;6308837;22;20293;-43
2024/01/20 07:38:16;;;;;;;35.43;18.30;;;-0.70;99.90;;;;;;6307956;22;20023;-42
2024/01/20 07:40:42;;;;;;;39.33;21.80;;;-0.70;99.90;;;;;;6280732;22;20012;-43
2024/01/20 07:43:11;;;;;;;40.07;21.60;;;-0.70;99.90;;;;;;6230339;22;20037;-43
2024/01/20 07:45:39;;;;;;;39.57;19.10;;;-0.80;99.90;;;;;;6281778;22;20086;-43
2024/01/20 07:48:05;;;;;;;42.20;16.27;;;-0.70;99.90;;;;;;6308376;22;20078;-43
2024/01/20 07:50:30;;;;;;;31.10;18.03;;;-0.60;99.90;;;;;;6307846;22;20054;-42
2024/01/20 07:52:56;;;;;;;29.93;17.47;;;-0.60;99.90;;;;;;6307612;22;20072;-43
2024/01/20 07:55:23;;;;;;;36.60;19.73;;;-0.60;99.90;;;;;;6308703;22;20090;-43
2024/01/20 07:57:48;;;;;;;41.53;19.43;;;-0.50;99.90;;;;;;6282093;22;20011;-43
2024/01/20 08:00:14;;;;;;;36.63;18.90;;;-0.60;99.90;;;;;;6310259;22;20023;-43
2024/01/20 08:02:40;;;;;;;37.90;20.43;;;-0.60;99.90;;;;;;6283777;22;20081;-43
2024/01/20 08:05:06;;;;;;;39.57;20.87;;;-0.50;99.90;;;;;;6283548;22;20027;-43
2024/01/20 08:07:32;;;;;;;43.47;21.97;;;-0.60;99.90;;;;;;6310011;22;20022;-42
2024/01/20 08:09:59;;;;;;;43.83;23.07;;;-0.60;99.90;;;;;;6310006;22;20058;-42
2024/01/20 08:12:24;;;;;;;37.87;18.83;;;-0.60;99.90;;;;;;6309998;22;20447;-43
2024/01/20 08:14:50;;;;;;;46.97;22.63;;;-0.60;99.90;;;;;;6309890;22;20094;-43
2024/01/20 08:17:16;;;;;;;42.37;24.07;;;-0.60;99.90;;;;;;6309757;22;20019;-43
2024/01/20 08:19:42;;;;;;;41.67;21.40;;;-0.60;99.90;;;;;;6282528;22;20025;-44
2024/01/20 08:22:08;;;;;;;37.47;20.20;;;-0.60;99.90;;;;;;6282394;22;20094;-42
2024/01/20 08:24:33;;;;;;;47.00;22.67;;;-0.60;99.90;;;;;;6283586;22;20020;-42
2024/01/20 08:26:59;;;;;;;45.73;22.10;;;-0.60;99.90;;;;;;6309420;22;20022;-43
2024/01/20 08:29:25;;;;;;;39.13;19.83;;;-0.60;99.90;;;;;;6309401;22;20101;-42
2024/01/20 08:31:50;;;;;;;44.97;22.07;;;-0.60;99.90;;;;;;6309702;22;20019;-43
2024/01/20 08:34:17;;;;;;;46.27;22.73;;;-0.60;99.90;;;;;;6310100;22;20050;-43
2024/01/20 08:36:43;;;;;;;43.73;22.97;;;-0.50;99.90;;;;;;6282676;22;20029;-42
2024/01/20 08:39:08;;;;;;;46.77;21.50;;;-0.50;99.90;;;;;;6309658;22;20023;-43
2024/01/20 08:41:34;;;;;;;40.03;21.67;;;-0.40;99.90;;;;;;6309605;22;20019;-42
2024/01/20 08:44:00;;;;;;;42.93;21.90;;;-0.20;99.90;;;;;;6309699;22;20026;-42
2024/01/20 08:46:25;;;;;;;54.97;24.33;;;-0.30;99.90;;;;;;6257170;22;20019;-42
2024/01/20 08:48:51;;;;;;;44.23;24.63;;;-0.30;99.90;;;;;;6309419;22;20055;-42
2024/01/20 08:51:17;;;;;;;40.60;21.13;;;-0.30;99.90;;;;;;6282229;22;20015;-42
2024/01/20 08:53:43;;;;;;;49.17;22.83;;;-0.20;99.90;;;;;;6256754;22;20027;-43
2024/01/20 08:56:09;;;;;;;38.23;19.87;;;-0.10;99.90;;;;;;6256180;22;20026;-42
2024/01/20 08:58:35;;;;;;;46.83;22.83;;;-0.10;99.90;;;;;;6282092;22;20011;-42
2024/01/20 09:01:00;;;;;;;42.93;21.73;;;0.00;99.90;;;;;;6309547;22;20015;-42
2024/01/20 09:03:26;;;;;;;43.50;22.20;;;-0.10;99.90;;;;;;6309443;22;20058;-43
2024/01/20 09:05:52;;;;;;;45.17;25.27;;;0.00;99.90;;;;;;6282085;22;20015;-43
2024/01/20 09:08:18;;;;;;;48.40;23.33;;;0.00;99.90;;;;;;6282884;22;20411;-44
2024/01/20 09:10:44;;;;;;;42.37;24.53;;;0.10;99.90;;;;;;6308956;22;20173;-43
2024/01/20 09:13:09;;;;;;;47.13;23.60;;;0.00;99.90;;;;;;6309371;22;20026;-42
2024/01/20 09:15:35;;;;;;;41.80;22.33;;;0.00;99.90;;;;;;6282226;22;20015;-42
2024/01/20 09:18:01;;;;;;;51.83;25.00;;;0.00;99.90;;;;;;6309196;22;20454;-42
2024/01/20 09:20:27;;;;;;;45.03;22.87;;;0.10;99.90;;;;;;6281130;22;20019;-42
2024/01/20 09:22:52;;;;;;;38.97;20.43;;;0.10;99.90;;;;;;6309930;22;20015;-43
2024/01/20 09:25:18;;;;;;;45.83;23.53;;;0.10;99.90;;;;;;6309183;22;20015;-42
2024/01/20 09:27:44;;;;;;;40.90;22.67;;;0.20;99.90;;;;;;6282275;22;20015;-42
2024/01/20 09:30:10;;;;;;;49.70;22.40;;;0.20;99.90;;;;;;6309101;22;20461;-42
2024/01/20 09:32:36;;;;;;;48.97;22.53;;;0.20;99.90;;;;;;6281804;22;20465;-42
2024/01/20 09:35:03;;;;;;;44.67;22.53;;;0.20;99.90;;;;;;6309125;22;20019;-42
2024/01/20 09:37:29;;;;;;;43.42;22.65;;;0.20;99.90;;;;;;6309993;22;20038;-43
2024/01/20 09:39:55;;;;;;;42.22;21.02;;;0.30;99.90;;;;;;6309083;22;20045;-42
2024/01/20 09:42:21;;;;;;;42.10;22.57;;;0.20;99.90;;;;;;6309090;22;20015;-43
2024/01/20 09:44:48;;;;;;;48.20;23.73;;;0.30;99.90;;;;;;6281769;22;20046;-42
2024/01/20 09:47:14;;;;;;;39.37;20.27;;;0.30;99.90;;;;;;6309382;22;20064;-42
2024/01/20 09:49:39;;;;;;;44.23;23.57;;;0.30;99.90;;;;;;6281680;22;20019;-44
2024/01/20 09:52:13;;;;;;;41.63;21.27;;;0.40;99.90;;;;;;6308613;22;20026;-42
2024/01/20 09:55:03;;;;;;;46.92;22.77;;;0.40;99.90;;;;;;6281977;22;20019;-43
2024/01/20 09:57:29;;;;;;;44.10;22.13;;;0.50;99.90;;;;;;6307258;22;20047;-43
2024/01/20 09:59:56;;;;;;;46.15;21.50;;;0.50;99.90;;;;;;6281267;22;20047;-43
2024/01/20 10:02:24;;;;;;;48.53;21.40;;;0.50;99.90;;;;;;6281924;22;20020;-42
2024/01/20 10:04:55;;;;;;;40.53;22.17;;;0.60;99.90;;;;;;6308830;22;20011;-43
2024/01/20 10:07:30;;;;;;;40.08;20.13;;;0.60;99.90;;;;;;6308877;22;20016;-43
2024/01/20 10:09:56;;;;;;;42.58;21.10;;;0.90;99.90;;;;;;6281399;22;20034;-43
2024/01/20 10:12:23;;;;;;;36.85;21.25;;;0.70;99.90;;;;;;6308839;22;20019;-43
2024/01/20 10:14:49;;;;;;;40.80;20.38;;;0.70;99.90;;;;;;6256255;22;20325;-43
2024/01/20 10:17:15;;;;;;;37.03;19.50;;;0.70;99.90;;;;;;6308915;22;20011;-42
2024/01/20 10:19:41;;;;;;;36.17;20.08;;;1.10;99.90;;;;;;6309219;22;20092;-42
2024/01/20 10:22:07;;;;;;;39.28;19.77;;;0.80;99.90;;;;;;6309204;22;20149;-43
2024/01/20 10:24:33;;;;;;;53.03;20.98;;;0.80;99.90;;;;;;6256417;22;20343;-43
2024/01/20 10:27:00;;;;;;;41.50;19.92;;;0.90;99.90;;;;;;6281379;22;20015;-43
2024/01/20 10:29:28;;;;;;;39.78;22.80;;;0.90;99.90;;;;;;6280391;22;20332;-42
2024/01/20 10:31:54;;;;;;;37.97;20.25;;;0.90;99.90;;;;;;6281477;22;20515;-42
2024/01/20 10:34:20;;;;;;;28.60;14.77;;;1.00;99.90;;;;;;6281957;22;20019;-43
2024/01/20 10:36:50;;;;;;;41.08;20.63;;;1.00;99.90;;;;;;6309072;22;20019;-43
2024/01/20 10:39:20;;;;;;;36.90;18.95;;;1.00;99.90;;;;;;6308435;22;20141;-43
2024/01/20 10:41:48;;;;;;;37.60;19.80;;;1.00;99.90;;;;;;6308051;22;20019;-43
2024/01/20 10:44:19;;;;;;;35.65;20.17;;;0.90;99.90;;;;;;6280575;22;20019;-42
2024/01/20 10:46:50;;;;;;;39.13;19.33;;;1.00;99.90;;;;;;6281187;22;20030;-42
2024/01/20 10:49:19;;;;;;;34.05;18.95;;;1.00;99.90;;;;;;6308137;22;20094;-43
2024/01/20 10:51:46;;;;;;;35.88;18.42;;;1.00;99.90;;;;;;6280105;22;20065;-44
2024/01/20 10:54:13;;;;;;;38.13;18.98;;;1.00;99.90;;;;;;6306891;22;20030;-42
2024/01/20 10:56:39;;;;;;;40.25;19.98;;;1.00;99.90;;;;;;6308165;22;20090;-42
2024/01/20 10:59:13;;;;;;;42.03;18.75;;;1.10;99.90;;;;;;6308297;22;20103;-42
2024/01/20 11:01:40;;;;;;;28.60;17.08;;;1.10;99.90;;;;;;6281122;22;20015;-43
2024/01/20 11:04:07;;;;;;;37.20;17.65;;;1.10;99.90;;;;;;6307822;22;20454;-43
2024/01/20 11:06:35;;;;;;;40.20;18.10;;;1.20;99.90;;;;;;6308228;22;20045;-42
2024/01/20 11:09:02;;;;;;;27.77;14.02;;;1.30;99.90;;;;;;6308202;22;20015;-43
2024/01/20 11:11:29;;;;;;;32.67;15.45;;;1.30;99.90;;;;;;6308873;22;20368;-42
2024/01/20 11:13:59;;;;;;;30.08;14.80;;;1.40;99.90;;;;;;6308033;22;20019;-42
2024/01/20 11:16:28;;;;;;;33.08;15.30;;;1.40;99.90;;;;;;6256334;22;20099;-43
2024/01/20 11:19:05;;;;;;;33.05;15.38;;;1.50;99.90;;;;;;6308476;22;20015;-42
2024/01/20 11:21:31;;;;;;;31.90;16.65;;;1.50;99.90;;;;;;6308259;22;20030;-42
2024/01/20 11:24:01;;;;;;;31.77;16.30;;;1.50;99.90;;;;;;6280404;22;20019;-42
2024/01/20 11:26:37;;;;;;;34.67;16.38;;;1.50;99.90;;;;;;6280742;22;20026;-42
2024/01/20 11:29:05;;;;;;;30.85;16.40;;;1.40;99.90;;;;;;6308042;22;20023;-42
2024/01/20 11:31:31;;;;;;;29.55;14.52;;;1.40;99.90;;;;;;6281497;22;20311;-43
2024/01/20 11:34:02;;;;;;;29.80;15.20;;;1.40;99.90;;;;;;6307901;22;20027;-42
2024/01/20 11:36:32;;;;;;;35.83;17.90;;;1.30;99.90;;;;;;6281426;22;20054;-42
2024/01/20 11:39:03;;;;;;;33.50;18.45;;;1.30;99.90;;;;;;6280981;22;20026;-43
2024/01/20 11:41:29;;;;;;;31.15;17.08;;;1.20;99.90;;;;;;6255698;22;20023;-43
2024/01/20 11:43:54;;;;;;;35.53;18.25;;;1.20;99.90;;;;;;6308638;22;20422;-42
2024/01/20 11:46:20;;;;;;;30.85;16.60;;;1.20;99.90;;;;;;6308446;22;20019;-42
2024/01/20 11:48:47;;;;;;;37.63;19.65;;;1.20;99.90;;;;;;6280876;22;20090;-42
2024/01/20 11:51:13;;;;;;;37.78;20.33;;;1.20;99.90;;;;;;6308070;22;20021;-42
2024/01/20 11:53:39;;;;;;;38.92;19.83;;;1.20;99.90;;;;;;6281035;22;20386;-42
2024/01/20 11:56:05;;;;;;;35.83;19.00;;;1.20;99.90;;;;;;6280571;22;20023;-42
2024/01/20 11:58:31;;;;;;;42.75;20.90;;;1.20;99.90;;;;;;6281586;22;20007;-42
2024/01/20 12:00:58;;;;;;;35.08;17.98;;;1.20;99.90;;;;;;6307867;22;20323;-42
2024/01/20 12:03:25;;;;;;;37.25;21.88;;;1.20;99.90;;;;;;6256153;22;20018;-42
2024/01/20 12:05:51;;;;;;;35.05;22.05;;;1.20;99.90;;;;;;6307907;22;20015;-42
2024/01/20 12:08:17;;;;;;;35.40;18.45;;;1.20;99.90;;;;;;6308578;22;20284;-42
2024/01/20 12:10:45;;;;;;;30.92;16.55;;;1.30;99.90;;;;;;6308564;22;20017;-42
2024/01/20 12:13:12;;;;;;;32.25;17.30;;;1.30;99.90;;;;;;6308533;22;20015;-42
2024/01/20 12:15:39;;;;;;;36.40;20.45;;;1.30;99.90;;;;;;6255018;22;20019;-43
2024/01/20 12:18:05;;;;;;;54.03;25.55;;;1.40;99.90;;;;;;6307745;22;20150;-44
2024/01/20 12:20:31;;;;;;;36.03;19.45;;;1.50;99.90;;;;;;6255490;22;20011;-43
2024/01/20 12:23:00;;;;;;;40.47;22.98;;;1.50;99.90;;;;;;6280465;22;20029;-43
2024/01/20 12:25:29;;;;;;;33.35;18.25;;;1.50;99.90;;;;;;6308852;22;20015;-43
2024/01/20 12:27:57;;;;;;;38.88;19.23;;;1.60;99.90;;;;;;6255938;22;20068;-43
2024/01/20 12:30:22;;;;;;;35.70;19.30;;;1.80;99.90;;;;;;6308441;22;20027;-43